Fs Ipanema — A8PT6 — position and weather

sailwx.info

Track history (hours):
 
Tides and Currents Weather Stations Pressure Air Temp Water Temp Dewpoint Dewpoint Depression Visibility Wind Speed Wind Dir Waves Ship Positions

Fs Ipanema

Last reported at 2017-Sep-17 06:28 UTC. Time now 2017-Sep-21 03:12 UTC.
Position N 25°36' W 079°37'.

Length 180 m; draft 7.6 m.

Type: Cargo ship. MMSI: 636018056.

Date/timePositionNaut miles runAvg speedWind from/ knotsBaromVisibWave heightAir tempDewpointWater temp
2017-Sep-17 06:28N 25°36' W 079°37'816.9
2017-Sep-17 05:59N 25°44' W 079°38'816.4
2017-Sep-17 05:30N 25°51' W 079°42'815.7
2017-Sep-17 05:00N 25°55' W 079°49'612.5
2017-Sep-17 04:30N 25°58' W 079°55'5 9.9
2017-Sep-17 04:00N 26°02' W 079°59'3 6.4
2017-Sep-17 03:30N 26°04' W 080°02'510.3
2017-Sep-17 03:01N 26°06' W 080°07'1 2.5
2017-Sep-17 02:30N 26°04' W 080°07'0 0.0
2017-Sep-17 01:59N 26°04' W 080°07'0 0.0
2017-Sep-17 01:29N 26°04' W 080°07'0 0.0
2017-Sep-17 00:59N 26°04' W 080°07'0 0.0
2017-Sep-17 00:29N 26°04' W 080°07'0 0.0
2017-Sep-16 23:59N 26°04' W 080°07'0 0.0
2017-Sep-16 23:29N 26°04' W 080°07'0 0.0
2017-Sep-16 22:59N 26°04' W 080°07'0 0.0
2017-Sep-16 22:29N 26°04' W 080°07'0 0.0
2017-Sep-16 21:59N 26°04' W 080°07'0 0.0
2017-Sep-16 21:29N 26°04' W 080°07'0 0.0
2017-Sep-16 20:59N 26°04' W 080°07'0 0.0
2017-Sep-16 20:29N 26°04' W 080°07'0 0.0
2017-Sep-16 19:59N 26°04' W 080°07'0 0.0
2017-Sep-16 19:29N 26°04' W 080°07'0 0.0
2017-Sep-16 18:59N 26°04' W 080°07'0 0.0
2017-Sep-16 18:29N 26°04' W 080°07'0 0.0
2017-Sep-16 17:59N 26°04' W 080°07'0 0.0
2017-Sep-16 17:29N 26°04' W 080°07'0 0.0
2017-Sep-16 16:59N 26°04' W 080°07'0 0.0
2017-Sep-16 16:29N 26°04' W 080°07'0 0.0
2017-Sep-16 15:59N 26°04' W 080°07'0 0.0
2017-Sep-16 15:29N 26°04' W 080°07'0 0.0
2017-Sep-16 14:59N 26°04' W 080°07'0 0.0
2017-Sep-16 14:29N 26°04' W 080°07'0 0.0
2017-Sep-16 13:59N 26°04' W 080°07'0 0.0
2017-Sep-16 13:29N 26°04' W 080°07'0 0.0
2017-Sep-16 12:59N 26°04' W 080°07'0 0.0
2017-Sep-16 12:29N 26°04' W 080°07'0 0.0
2017-Sep-16 11:59N 26°04' W 080°07'0 0.0
2017-Sep-16 11:29N 26°04' W 080°07'0 0.0
2017-Sep-16 10:59N 26°04' W 080°07'0 0.0
2017-Sep-16 10:29N 26°04' W 080°07'0 0.0
2017-Sep-16 09:59N 26°04' W 080°07'0 0.0
2017-Sep-16 09:29N 26°04' W 080°07'0 0.0
2017-Sep-16 08:59N 26°04' W 080°07'0 0.0
2017-Sep-16 08:29N 26°04' W 080°07'0 0.0
2017-Sep-16 07:59N 26°04' W 080°07'0 0.0
2017-Sep-16 07:29N 26°04' W 080°07'0 0.0
2017-Sep-16 06:59N 26°04' W 080°07'0 0.0
2017-Sep-16 06:29N 26°04' W 080°07'0 0.0
2017-Sep-16 05:59N 26°04' W 080°07'0 0.0
2017-Sep-16 05:29N 26°04' W 080°07'0 0.0
2017-Sep-16 04:59N 26°04' W 080°07'0 0.0
2017-Sep-16 04:29N 26°04' W 080°07'0 0.0
2017-Sep-16 03:59N 26°04' W 080°07'0 0.0
2017-Sep-16 03:29N 26°04' W 080°07'0 0.0
2017-Sep-16 02:59N 26°04' W 080°07'0 0.0
2017-Sep-16 02:29N 26°04' W 080°07'0 0.0
2017-Sep-16 01:59N 26°04' W 080°07'0 0.0
2017-Sep-16 01:29N 26°04' W 080°07'0 0.0
2017-Sep-16 00:59N 26°04' W 080°07'0 0.0
2017-Sep-16 00:29N 26°04' W 080°07'0 0.0
2017-Sep-15 23:59N 26°04' W 080°07'0 0.0
2017-Sep-15 23:29N 26°04' W 080°07'0 0.0
2017-Sep-15 22:59N 26°04' W 080°07'0 0.0
2017-Sep-15 22:29N 26°04' W 080°07'0 0.0
2017-Sep-15 21:59N 26°04' W 080°07'0 0.0
2017-Sep-15 21:29N 26°04' W 080°07'0 0.1
2017-Sep-15 21:00N 26°04' W 080°07'3 6.6
2017-Sep-15 20:30N 26°06' W 080°04'3 5.1
2017-Sep-15 20:00N 26°06' W 080°01'3 6.4
2017-Sep-15 19:30N 26°09' W 079°58'611.3
2017-Sep-15 19:00N 26°14' W 079°56'510.6
2017-Sep-15 18:30N 26°19' W 079°55'5 9.8
2017-Sep-15 18:00N 26°24' W 079°55'5 9.4
2017-Sep-15 17:30N 26°29' W 079°55'5 9.2
2017-Sep-15 16:59N 26°34' W 079°55'6 9.5
2017-Sep-15 16:20N 26°40' W 079°55'6 9.7
2017-Sep-15 15:43N 26°46' W 079°55'2 9.6
2017-Sep-15 15:30N 26°48' W 079°55'5 9.3
2017-Sep-15 15:00N 26°52' W 079°55'5 9.1
2017-Sep-15 14:30N 26°57' W 079°55'5 9.2
2017-Sep-15 14:00N 27°02' W 079°55'  
Track history (hours):
 
Tides and Currents Weather Stations Pressure Air Temp Water Temp Dewpoint Dewpoint Depression Visibility Wind Speed Wind Dir Waves Ship Positions

Fs Ipanema

Last reported at 2017-Sep-17 06:28 UTC. Time now 2017-Sep-21 03:12 UTC.
Position N 25°36' W 079°37'.

Length 180 m; draft 7.6 m.

Type: Cargo ship. MMSI: 636018056.

Date/timePositionNaut miles runAvg speedWind from/ knotsBaromVisibWave heightAir tempDewpointWater temp
2017-Sep-17 06:28N 25°36' W 079°37'816.9
2017-Sep-17 05:59N 25°44' W 079°38'816.4
2017-Sep-17 05:30N 25°51' W 079°42'815.7
2017-Sep-17 05:00N 25°55' W 079°49'612.5
2017-Sep-17 04:30N 25°58' W 079°55'5 9.9
2017-Sep-17 04:00N 26°02' W 079°59'3 6.4
2017-Sep-17 03:30N 26°04' W 080°02'510.3
2017-Sep-17 03:01N 26°06' W 080°07'1 2.5
2017-Sep-17 02:30N 26°04' W 080°07'0 0.0
2017-Sep-17 01:59N 26°04' W 080°07'0 0.0
2017-Sep-17 01:29N 26°04' W 080°07'0 0.0
2017-Sep-17 00:59N 26°04' W 080°07'0 0.0
2017-Sep-17 00:29N 26°04' W 080°07'0 0.0
2017-Sep-16 23:59N 26°04' W 080°07'0 0.0
2017-Sep-16 23:29N 26°04' W 080°07'0 0.0
2017-Sep-16 22:59N 26°04' W 080°07'0 0.0
2017-Sep-16 22:29N 26°04' W 080°07'0 0.0
2017-Sep-16 21:59N 26°04' W 080°07'0 0.0
2017-Sep-16 21:29N 26°04' W 080°07'0 0.0
2017-Sep-16 20:59N 26°04' W 080°07'0 0.0
2017-Sep-16 20:29N 26°04' W 080°07'0 0.0
2017-Sep-16 19:59N 26°04' W 080°07'0 0.0
2017-Sep-16 19:29N 26°04' W 080°07'0 0.0
2017-Sep-16 18:59N 26°04' W 080°07'0 0.0
2017-Sep-16 18:29N 26°04' W 080°07'0 0.0
2017-Sep-16 17:59N 26°04' W 080°07'0 0.0
2017-Sep-16 17:29N 26°04' W 080°07'0 0.0
2017-Sep-16 16:59N 26°04' W 080°07'0 0.0
2017-Sep-16 16:29N 26°04' W 080°07'0 0.0
2017-Sep-16 15:59N 26°04' W 080°07'0 0.0
2017-Sep-16 15:29N 26°04' W 080°07'0 0.0
2017-Sep-16 14:59N 26°04' W 080°07'0 0.0
2017-Sep-16 14:29N 26°04' W 080°07'0 0.0
2017-Sep-16 13:59N 26°04' W 080°07'0 0.0
2017-Sep-16 13:29N 26°04' W 080°07'0 0.0
2017-Sep-16 12:59N 26°04' W 080°07'0 0.0
2017-Sep-16 12:29N 26°04' W 080°07'0 0.0
2017-Sep-16 11:59N 26°04' W 080°07'0 0.0
2017-Sep-16 11:29N 26°04' W 080°07'0 0.0
2017-Sep-16 10:59N 26°04' W 080°07'0 0.0
2017-Sep-16 10:29N 26°04' W 080°07'0 0.0
2017-Sep-16 09:59N 26°04' W 080°07'0 0.0
2017-Sep-16 09:29N 26°04' W 080°07'0 0.0
2017-Sep-16 08:59N 26°04' W 080°07'0 0.0
2017-Sep-16 08:29N 26°04' W 080°07'0 0.0
2017-Sep-16 07:59N 26°04' W 080°07'0 0.0
2017-Sep-16 07:29N 26°04' W 080°07'0 0.0
2017-Sep-16 06:59N 26°04' W 080°07'0 0.0
2017-Sep-16 06:29N 26°04' W 080°07'0 0.0
2017-Sep-16 05:59N 26°04' W 080°07'0 0.0
2017-Sep-16 05:29N 26°04' W 080°07'0 0.0
2017-Sep-16 04:59N 26°04' W 080°07'0 0.0
2017-Sep-16 04:29N 26°04' W 080°07'0 0.0
2017-Sep-16 03:59N 26°04' W 080°07'0 0.0
2017-Sep-16 03:29N 26°04' W 080°07'0 0.0
2017-Sep-16 02:59N 26°04' W 080°07'0 0.0
2017-Sep-16 02:29N 26°04' W 080°07'0 0.0
2017-Sep-16 01:59N 26°04' W 080°07'0 0.0
2017-Sep-16 01:29N 26°04' W 080°07'0 0.0
2017-Sep-16 00:59N 26°04' W 080°07'0 0.0
2017-Sep-16 00:29N 26°04' W 080°07'0 0.0
2017-Sep-15 23:59N 26°04' W 080°07'0 0.0
2017-Sep-15 23:29N 26°04' W 080°07'0 0.0
2017-Sep-15 22:59N 26°04' W 080°07'0 0.0
2017-Sep-15 22:29N 26°04' W 080°07'0 0.0
2017-Sep-15 21:59N 26°04' W 080°07'0 0.0
2017-Sep-15 21:29N 26°04' W 080°07'0 0.1
2017-Sep-15 21:00N 26°04' W 080°07'3 6.6
2017-Sep-15 20:30N 26°06' W 080°04'3 5.1
2017-Sep-15 20:00N 26°06' W 080°01'3 6.4
2017-Sep-15 19:30N 26°09' W 079°58'611.3
2017-Sep-15 19:00N 26°14' W 079°56'510.6
2017-Sep-15 18:30N 26°19' W 079°55'5 9.8
2017-Sep-15 18:00N 26°24' W 079°55'5 9.4
2017-Sep-15 17:30N 26°29' W 079°55'5 9.2
2017-Sep-15 16:59N 26°34' W 079°55'6 9.5
2017-Sep-15 16:20N 26°40' W 079°55'6 9.7
2017-Sep-15 15:43N 26°46' W 079°55'2 9.6
2017-Sep-15 15:30N 26°48' W 079°55'5 9.3
2017-Sep-15 15:00N 26°52' W 079°55'5 9.1
2017-Sep-15 14:30N 26°57' W 079°55'5 9.2
2017-Sep-15 14:00N 27°02' W 079°55'  

Dump ship's entire track history